Domremy, Canada
Current Conditions -  °F | °C
As of 8:00 AM on Thursday 29 Jan 2015 (Local Time) from CYPA Reporting Station
Light Snow Light Snow  
Wind Chill: -2°   Ceiling: 1100
Heat Index: -2°   Visibility: 15mi
Dew Point: -6°   Wind: 3mph
Humidity: 85%   Direction: 260°W
Pressure: 30.54"   Gusts: NA
Location:  52.78°N, 105.73°W
Report Text: CYPA 291400Z 26003KT 15SM -SN OVC011 M19/M21 A3054 RMK SC8 SLP385
Loading
Personal Weather Stations






























Interactive Weather Map New forecast layout! Learn more

10-Day Weather Forecast

Advertisements
Track Severe Weather on mobile